Heiner, Kentucky
Current Conditions -  °F | °C
As of 11:23 AM on Monday 26 Jan 2015 (Local Time) from KJKL Reporting Station
Haze Haze  
Wind Chill: 14°   Ceiling: 500
Heat Index: 24°   Visibility: 6mi
Dew Point: 22°   Wind: 9mph
Humidity: 91%   Direction: 300°WNW
Pressure: 29.84"   Gusts: 16mph
Location:  37.3318°N, 83.1697°W
Report Text: KJKL 261623Z AUTO 30008G14KT 6SM BR OVC005 M04/M06 A2984 RMK AO2 T10441056
Loading
Personal Weather Stations






























Interactive Weather Map New forecast layout! Learn more

10-Day Weather Forecast

Advertisements
Track Severe Weather on mobile